createdAt,value
2018-01-05T00:00:08.994Z,0
2018-01-05T00:01:17.824Z,0
2018-01-05T00:02:26.654Z,0
2018-01-05T00:03:35.480Z,0
2018-01-05T00:04:44.360Z,0
2018-01-05T00:05:53.192Z,0
2018-01-05T00:07:02.020Z,0
2018-01-05T00:08:10.848Z,0
2018-01-05T00:09:19.677Z,0
2018-01-05T00:10:28.505Z,0
2018-01-05T00:11:37.334Z,0
2018-01-05T00:12:46.163Z,0
2018-01-05T00:13:55.266Z,0
2018-01-05T00:15:04.371Z,0
2018-01-05T00:16:13.250Z,0
2018-01-05T00:17:22.075Z,0
2018-01-05T00:18:30.905Z,0
2018-01-05T00:19:39.737Z,0
2018-01-05T00:20:48.567Z,0
2018-01-05T00:21:57.694Z,0
2018-01-05T00:23:06.806Z,0
2018-01-05T00:24:15.633Z,0
2018-01-05T00:25:24.463Z,0
2018-01-05T00:26:33.291Z,0
2018-01-05T00:27:42.421Z,0
2018-01-05T00:28:51.524Z,0
2018-01-05T00:30:00.367Z,0
2018-01-05T00:31:09.180Z,0
2018-01-05T00:32:18.009Z,0
2018-01-05T00:33:26.837Z,0
2018-01-05T00:34:35.663Z,0
2018-01-05T00:35:44.493Z,0
2018-01-05T00:36:53.324Z,0
2018-01-05T00:38:02.445Z,0
2018-01-05T00:39:11.273Z,0
2018-01-05T00:40:20.101Z,0
2018-01-05T00:41:28.931Z,0
2018-01-05T00:42:38.033Z,0
2018-01-05T00:43:46.862Z,0
2018-01-05T00:44:55.740Z,0
2018-01-05T00:46:04.570Z,0
2018-01-05T00:47:13.397Z,0
2018-01-05T00:48:22.226Z,0
2018-01-05T00:49:31.057Z,0
2018-01-05T00:50:39.989Z,0
2018-01-05T00:51:48.818Z,0
2018-01-05T00:52:57.920Z,0
2018-01-05T00:54:06.750Z,0
2018-01-05T00:55:15.579Z,0
2018-01-05T00:56:24.557Z,0
2018-01-05T00:57:33.385Z,0
2018-01-05T00:58:42.212Z,0
2018-01-05T00:59:51.041Z,0
2018-01-05T01:00:59.867Z,0
2018-01-05T01:02:08.704Z,0
2018-01-05T01:03:17.525Z,0
2018-01-05T01:04:26.354Z,0
2018-01-05T01:05:35.456Z,0
2018-01-05T01:06:44.287Z,0
2018-01-05T01:07:53.415Z,0
2018-01-05T01:09:02.519Z,0
2018-01-05T01:10:11.346Z,0
2018-01-05T01:11:20.233Z,0
2018-01-05T01:12:29.002Z,0
2018-01-05T01:13:38.108Z,0
2018-01-05T01:14:46.938Z,0
2018-01-05T01:15:55.768Z,0
2018-01-05T01:17:04.595Z,0
2018-01-05T01:18:13.422Z,0
2018-01-05T01:19:22.303Z,0
2018-01-05T01:20:31.132Z,0
2018-01-05T01:21:39.964Z,0
2018-01-05T01:22:48.791Z,0
2018-01-05T01:23:57.617Z,0
2018-01-05T01:25:06.595Z,0
2018-01-05T01:26:15.425Z,0
2018-01-05T01:27:24.255Z,0
2018-01-05T01:28:33.084Z,0
2018-01-05T01:29:41.912Z,0
2018-01-05T01:30:50.741Z,0
2018-01-05T01:31:59.575Z,0
2018-01-05T01:33:08.404Z,0
2018-01-05T01:34:17.233Z,0
2018-01-05T01:35:26.338Z,0
2018-01-05T01:36:35.437Z,0
2018-01-05T01:37:44.267Z,0
2018-01-05T01:38:53.097Z,0
2018-01-05T01:40:01.927Z,0
2018-01-05T01:41:10.755Z,0
2018-01-05T01:42:19.787Z,0
2018-01-05T01:43:28.614Z,0
2018-01-05T01:44:37.442Z,0
2018-01-05T01:45:46.271Z,0
2018-01-05T01:46:55.099Z,0
2018-01-05T01:48:04.082Z,0
2018-01-05T01:49:12.909Z,0
2018-01-05T01:50:22.027Z,0
2018-01-05T01:51:30.850Z,0
2018-01-05T01:52:39.680Z,0
2018-01-05T01:53:48.807Z,0
2018-01-05T01:54:57.640Z,0
2018-01-05T01:56:06.463Z,0
2018-01-05T01:57:15.561Z,0
2018-01-05T01:58:24.390Z,0
2018-01-05T01:59:33.220Z,0
2018-01-05T02:00:42.046Z,0
2018-01-05T02:01:50.875Z,0
2018-01-05T02:02:59.706Z,0
2018-01-05T02:04:08.537Z,0
2018-01-05T02:05:17.418Z,0
2018-01-05T02:06:26.246Z,0
2018-01-05T02:07:35.076Z,0
2018-01-05T02:08:43.908Z,0
2018-01-05T02:09:52.733Z,0
2018-01-05T02:11:01.991Z,0
2018-01-05T02:12:10.822Z,0
2018-01-05T02:13:19.647Z,0
2018-01-05T02:14:28.756Z,0
2018-01-05T02:15:37.587Z,0
2018-01-05T02:16:46.564Z,0
2018-01-05T02:17:55.392Z,0
2018-01-05T02:19:04.220Z,0
2018-01-05T02:20:13.045Z,0
2018-01-05T02:21:21.880Z,0
2018-01-05T02:22:30.853Z,0
2018-01-05T02:23:39.680Z,0
2018-01-05T02:24:48.513Z,0
2018-01-05T02:25:57.620Z,0
2018-01-05T02:27:06.451Z,0
2018-01-05T02:28:15.329Z,0
2018-01-05T02:29:24.156Z,0
2018-01-05T02:30:32.985Z,0
2018-01-05T02:31:41.812Z,0
2018-01-05T02:32:50.641Z,0
2018-01-05T02:33:59.468Z,0
2018-01-05T02:35:08.300Z,0
2018-01-05T02:36:17.127Z,0
2018-01-05T02:37:26.244Z,0
2018-01-05T02:38:35.073Z,0
2018-01-05T02:39:44.006Z,0
2018-01-05T02:40:52.836Z,0
2018-01-05T02:42:01.665Z,0
2018-01-05T02:43:10.494Z,0
2018-01-05T02:44:19.332Z,0
2018-01-05T02:45:28.536Z,0
2018-01-05T02:46:37.377Z,0
2018-01-05T02:47:46.483Z,0
2018-01-05T02:48:55.311Z,0
2018-01-05T02:50:04.141Z,0
2018-01-05T02:51:13.272Z,0
2018-01-05T02:52:22.370Z,0
2018-01-05T02:53:31.198Z,0
2018-01-05T02:54:40.027Z,0
2018-01-05T02:55:48.853Z,0
2018-01-05T02:56:57.837Z,0
2018-01-05T02:58:06.668Z,0
2018-01-05T02:59:15.772Z,0
2018-01-05T03:00:24.934Z,0
2018-01-05T03:01:33.763Z,0
2018-01-05T03:02:42.642Z,0
2018-01-05T03:03:51.748Z,0
2018-01-05T03:05:00.574Z,0
2018-01-05T03:06:09.403Z,0
2018-01-05T03:07:18.229Z,0
2018-01-05T03:08:27.482Z,0
2018-01-05T03:09:36.312Z,0
2018-01-05T03:10:45.143Z,0
2018-01-05T03:11:53.976Z,0
2018-01-05T03:13:02.805Z,0
2018-01-05T03:14:11.635Z,0
2018-01-05T03:15:20.464Z,0
2018-01-05T03:16:29.296Z,0
2018-01-05T03:17:38.127Z,0
2018-01-05T03:18:46.958Z,0
2018-01-05T03:19:56.110Z,0
2018-01-05T03:21:04.939Z,0
2018-01-05T03:22:13.770Z,0
2018-01-05T03:23:22.599Z,0
2018-01-05T03:24:31.426Z,0
2018-01-05T03:25:40.304Z,0
2018-01-05T03:26:49.408Z,0
2018-01-05T03:27:58.237Z,0
2018-01-05T03:29:07.068Z,0
2018-01-05T03:30:15.896Z,0
2018-01-05T03:31:24.778Z,0
2018-01-05T03:32:33.610Z,0
2018-01-05T03:33:42.437Z,0
2018-01-05T03:34:51.265Z,0
2018-01-05T03:36:00.093Z,0
2018-01-05T03:37:09.121Z,0
2018-01-05T03:38:17.951Z,0
2018-01-05T03:39:26.782Z,0
2018-01-05T03:40:35.611Z,0
2018-01-05T03:41:44.439Z,0
2018-01-05T03:42:53.318Z,0
2018-01-05T03:44:02.146Z,0
2018-01-05T03:45:10.976Z,0
2018-01-05T03:46:19.803Z,0
2018-01-05T03:47:28.633Z,0
2018-01-05T03:48:37.462Z,0
2018-01-05T03:49:46.290Z,0
2018-01-05T03:50:55.118Z,0
2018-01-05T03:52:03.948Z,0
2018-01-05T03:53:12.780Z,0
2018-01-05T03:54:21.608Z,0
2018-01-05T03:55:30.436Z,0
2018-01-05T03:56:39.542Z,0
2018-01-05T03:57:48.370Z,0
2018-01-05T03:58:57.199Z,0
2018-01-05T04:00:06.177Z,0
2018-01-05T04:01:15.011Z,0
2018-01-05T04:02:23.841Z,0
2018-01-05T04:03:32.671Z,0
2018-01-05T04:04:41.506Z,0
2018-01-05T04:05:50.328Z,0
2018-01-05T04:06:59.158Z,0
2018-01-05T04:08:07.988Z,0
2018-01-05T04:09:16.818Z,0
2018-01-05T04:10:25.922Z,0
2018-01-05T04:11:34.801Z,0
2018-01-05T04:12:43.906Z,0
2018-01-05T04:13:52.736Z,0
2018-01-05T04:15:01.566Z,0
2018-01-05T04:16:10.394Z,0
2018-01-05T04:17:19.372Z,0
2018-01-05T04:18:28.205Z,0
2018-01-05T04:19:37.030Z,0
2018-01-05T04:20:46.134Z,0
2018-01-05T04:21:54.961Z,0
2018-01-05T04:23:03.839Z,0
2018-01-05T04:24:12.671Z,0
2018-01-05T04:25:21.497Z,0
2018-01-05T04:26:30.612Z,0
2018-01-05T04:27:39.442Z,0
2018-01-05T04:28:48.572Z,0
2018-01-05T04:29:57.401Z,0
2018-01-05T04:31:06.228Z,0
2018-01-05T04:32:15.058Z,0
2018-01-05T04:33:24.162Z,0
2018-01-05T04:34:33.092Z,0
2018-01-05T04:35:41.919Z,0
2018-01-05T04:36:50.748Z,0
2018-01-05T04:37:59.578Z,0
2018-01-05T04:39:08.406Z,0
2018-01-05T04:40:17.436Z,0
2018-01-05T04:41:26.267Z,0
2018-01-05T04:42:35.098Z,0
2018-01-05T04:43:43.927Z,0
2018-01-05T04:44:53.039Z,0
2018-01-05T04:46:02.141Z,0
2018-01-05T04:47:10.970Z,0
2018-01-05T04:48:19.802Z,0
2018-01-05T04:49:28.901Z,0
2018-01-05T04:50:37.733Z,0
2018-01-05T04:51:46.613Z,0
2018-01-05T04:52:55.438Z,0
2018-01-05T04:54:04.267Z,0
2018-01-05T04:55:13.099Z,0
2018-01-05T04:56:21.931Z,0
2018-01-05T04:57:30.857Z,0
2018-01-05T04:58:39.687Z,0
2018-01-05T04:59:48.524Z,0
2018-01-05T05:00:57.343Z,0
2018-01-05T05:02:06.172Z,0
2018-01-05T05:03:15.102Z,0
2018-01-05T05:04:23.930Z,0
2018-01-05T05:05:32.759Z,0
2018-01-05T05:06:41.589Z,0
2018-01-05T05:07:50.419Z,0
2018-01-05T05:08:59.401Z,0
2018-01-05T05:10:08.502Z,0
2018-01-05T05:11:17.331Z,0
2018-01-05T05:12:26.162Z,0
2018-01-05T05:13:34.994Z,0
2018-01-05T05:14:43.822Z,0
2018-01-05T05:15:52.929Z,0
2018-01-05T05:17:01.755Z,0
2018-01-05T05:18:10.589Z,0
2018-01-05T05:19:19.418Z,0
2018-01-05T05:20:28.646Z,0
2018-01-05T05:21:37.489Z,0
2018-01-05T05:22:46.311Z,0
2018-01-05T05:23:55.141Z,0
2018-01-05T05:25:03.971Z,0
2018-01-05T05:26:12.801Z,0
2018-01-05T05:27:21.903Z,0
2018-01-05T05:28:31.022Z,0
2018-01-05T05:29:39.847Z,0
2018-01-05T05:30:48.674Z,0
2018-01-05T05:31:57.778Z,0
2018-01-05T05:33:06.611Z,0
2018-01-05T05:34:15.443Z,0
2018-01-05T05:35:24.620Z,0
2018-01-05T05:36:33.723Z,0
2018-01-05T05:37:42.603Z,0
2018-01-05T05:38:51.706Z,0
2018-01-05T05:40:00.536Z,0
2018-01-05T05:41:09.365Z,0
2018-01-05T05:42:18.196Z,0
2018-01-05T05:43:27.348Z,0
2018-01-05T05:44:36.176Z,0
2018-01-05T05:45:45.004Z,0
2018-01-05T05:46:53.833Z,0
2018-01-05T05:48:02.942Z,0
2018-01-05T05:49:12.422Z,0
2018-01-05T05:50:21.251Z,0
2018-01-05T05:51:30.084Z,0
2018-01-05T05:52:38.915Z,0
2018-01-05T05:53:47.743Z,0
2018-01-05T05:54:56.572Z,0
2018-01-05T05:56:05.402Z,0
2018-01-05T05:57:14.233Z,0
2018-01-05T05:58:23.062Z,0
2018-01-05T05:59:31.890Z,0
2018-01-05T06:00:40.870Z,0
2018-01-05T06:01:49.703Z,0
2018-01-05T06:02:58.533Z,0
2018-01-05T06:04:07.364Z,0
2018-01-05T06:05:16.190Z,0
2018-01-05T06:06:25.171Z,0
2018-01-05T06:07:34.002Z,0
2018-01-05T06:08:42.830Z,0
2018-01-05T06:09:51.660Z,0
2018-01-05T06:11:00.490Z,0
2018-01-05T06:12:09.468Z,0
2018-01-05T06:13:18.298Z,0
2018-01-05T06:14:27.130Z,0
2018-01-05T06:15:35.958Z,0
2018-01-05T06:16:44.809Z,0
2018-01-05T06:17:53.666Z,0
2018-01-05T06:19:02.499Z,0
2018-01-05T06:20:11.327Z,0
2018-01-05T06:21:20.159Z,0
2018-01-05T06:22:28.990Z,0
2018-01-05T06:23:38.069Z,0
2018-01-05T06:24:46.896Z,0
2018-01-05T06:25:55.726Z,0
2018-01-05T06:27:04.555Z,0
2018-01-05T06:28:13.385Z,0
2018-01-05T06:29:22.319Z,0
2018-01-05T06:30:31.163Z,0
2018-01-05T06:31:39.982Z,0
2018-01-05T06:32:48.812Z,0
2018-01-05T06:33:57.639Z,0
2018-01-05T06:35:06.797Z,0
2018-01-05T06:36:15.629Z,0
2018-01-05T06:37:24.462Z,0
2018-01-05T06:38:33.289Z,0
2018-01-05T06:39:42.119Z,0
2018-01-05T06:40:51.250Z,0
2018-01-05T06:42:00.079Z,0
2018-01-05T06:43:08.910Z,0
2018-01-05T06:44:17.741Z,0
2018-01-05T06:45:26.568Z,0
2018-01-05T06:46:35.397Z,0
2018-01-05T06:47:44.224Z,0
2018-01-05T06:48:53.052Z,0
2018-01-05T06:50:01.883Z,0
2018-01-05T06:51:10.714Z,0
2018-01-05T06:52:19.694Z,0
2018-01-05T06:53:28.522Z,0
2018-01-05T06:54:37.355Z,0
2018-01-05T06:55:46.461Z,0
2018-01-05T06:56:55.293Z,0
2018-01-05T06:58:04.509Z,0
2018-01-05T06:59:13.611Z,0
2018-01-05T07:00:22.439Z,0
2018-01-05T07:01:31.269Z,0
2018-01-05T07:02:40.101Z,0
2018-01-05T07:03:49.077Z,0
2018-01-05T07:04:57.909Z,0
2018-01-05T07:06:07.021Z,0
2018-01-05T07:07:15.851Z,4
2018-01-05T07:08:24.681Z,4
2018-01-05T07:09:33.815Z,0
2018-01-05T07:10:42.646Z,4
2018-01-05T07:11:51.476Z,8
2018-01-05T07:13:00.305Z,4
2018-01-05T07:14:09.137Z,8
2018-01-05T07:15:18.017Z,8
2018-01-05T07:16:26.850Z,8
2018-01-05T07:17:35.683Z,8
2018-01-05T07:18:45.065Z,12
2018-01-05T07:19:53.896Z,16
2018-01-05T07:21:03.148Z,16
2018-01-05T07:22:11.979Z,20
2018-01-05T07:23:21.078Z,20
2018-01-05T07:24:30.183Z,24
2018-01-05T07:25:39.012Z,24
2018-01-05T07:26:47.997Z,32
2018-01-05T07:27:56.877Z,32
2018-01-05T07:29:05.707Z,40
2018-01-05T07:30:14.536Z,40
2018-01-05T07:31:23.367Z,44
2018-01-05T07:32:32.520Z,52
2018-01-05T07:33:41.348Z,56
2018-01-05T07:34:50.175Z,64
2018-01-05T07:35:59.013Z,68
2018-01-05T07:37:08.122Z,72
2018-01-05T07:38:17.004Z,80
2018-01-05T07:39:25.844Z,84
2018-01-05T07:40:34.671Z,88
2018-01-05T07:41:43.501Z,100
2018-01-05T07:42:52.609Z,104
2018-01-05T07:44:01.440Z,112
2018-01-05T07:45:10.270Z,120
2018-01-05T07:46:19.103Z,132
2018-01-05T07:47:28.224Z,140
2018-01-05T07:48:37.049Z,144
2018-01-05T07:49:45.879Z,160
2018-01-05T07:50:54.710Z,168
2018-01-05T07:52:03.538Z,172
2018-01-05T07:53:12.371Z,188
2018-01-05T07:54:21.200Z,204
2018-01-05T07:55:30.427Z,224
2018-01-05T07:56:39.254Z,240
2018-01-05T07:57:48.084Z,256
2018-01-05T07:58:56.915Z,260
2018-01-05T08:00:05.743Z,272
2018-01-05T08:01:14.625Z,288
2018-01-05T08:02:23.454Z,308
2018-01-05T08:03:32.837Z,328
2018-01-05T08:04:41.941Z,348
2018-01-05T08:05:50.771Z,364
2018-01-05T08:06:59.752Z,360
2018-01-05T08:08:08.582Z,348
2018-01-05T08:09:17.411Z,348
2018-01-05T08:10:26.242Z,352
2018-01-05T08:11:35.346Z,384
2018-01-05T08:12:44.501Z,376
2018-01-05T08:13:53.334Z,392
2018-01-05T08:15:02.714Z,404
2018-01-05T08:16:11.546Z,436
2018-01-05T08:17:20.384Z,444
2018-01-05T08:18:29.811Z,440
2018-01-05T08:19:38.642Z,448
2018-01-05T08:20:47.474Z,464
2018-01-05T08:21:56.308Z,452
2018-01-05T08:23:05.139Z,428
2018-01-05T08:24:14.268Z,400
2018-01-05T08:25:23.099Z,392
2018-01-05T08:26:31.930Z,388
2018-01-05T08:27:41.034Z,400
2018-01-05T08:28:49.864Z,408
2018-01-05T08:29:58.943Z,416
2018-01-05T08:31:07.773Z,424
2018-01-05T08:32:16.603Z,428
2018-01-05T08:33:25.432Z,420
2018-01-05T08:34:34.261Z,424
2018-01-05T08:35:43.343Z,448
2018-01-05T08:36:52.170Z,476
2018-01-05T08:38:00.998Z,480
2018-01-05T08:39:09.938Z,492
2018-01-05T08:40:18.782Z,488
2018-01-05T08:41:27.712Z,512
2018-01-05T08:42:36.544Z,548
2018-01-05T08:43:45.657Z,576
2018-01-05T08:44:54.760Z,612
2018-01-05T08:46:03.591Z,616
2018-01-05T08:47:12.420Z,624
2018-01-05T08:48:21.248Z,672
2018-01-05T08:49:30.081Z,692
2018-01-05T08:50:38.908Z,748
2018-01-05T08:51:47.739Z,788
2018-01-05T08:52:56.992Z,756
2018-01-05T08:54:05.824Z,776
2018-01-05T08:55:14.650Z,856
2018-01-05T08:56:23.482Z,1012
2018-01-05T08:57:32.308Z,1004
2018-01-05T08:58:41.137Z,984
2018-01-05T08:59:49.968Z,972
2018-01-05T09:00:58.800Z,1032
2018-01-05T09:02:07.907Z,1092
2018-01-05T09:03:16.736Z,1048
2018-01-05T09:04:25.868Z,1052
2018-01-05T09:05:34.700Z,1156
2018-01-05T09:06:43.529Z,1180
2018-01-05T09:07:52.639Z,1192
2018-01-05T09:09:01.471Z,1280
2018-01-05T09:10:10.453Z,1340
2018-01-05T09:11:19.284Z,1408
2018-01-05T09:12:28.119Z,1488
2018-01-05T09:13:36.947Z,1488
2018-01-05T09:14:45.786Z,1456
2018-01-05T09:15:54.945Z,1428
2018-01-05T09:17:04.071Z,1432
2018-01-05T09:18:12.921Z,1424
2018-01-05T09:19:21.752Z,1448
2018-01-05T09:20:30.864Z,1492
2018-01-05T09:21:40.122Z,1528
2018-01-05T09:22:49.230Z,1576
2018-01-05T09:23:58.061Z,1604
2018-01-05T09:25:06.890Z,1644
2018-01-05T09:26:15.721Z,1616
2018-01-05T09:27:24.978Z,1608
2018-01-05T09:28:33.812Z,1668
2018-01-05T09:29:42.915Z,1644
2018-01-05T09:30:51.744Z,1636
2018-01-05T09:32:00.576Z,1696
2018-01-05T09:33:09.460Z,1712
2018-01-05T09:34:18.560Z,1732
2018-01-05T09:35:27.391Z,1736
2018-01-05T09:36:36.224Z,1724
2018-01-05T09:37:45.155Z,1740
2018-01-05T09:38:53.988Z,1752
2018-01-05T09:40:02.820Z,1772
2018-01-05T09:41:11.651Z,1824
2018-01-05T09:42:20.480Z,1868
2018-01-05T09:43:29.315Z,1832
2018-01-05T09:44:38.467Z,1784
2018-01-05T09:45:47.300Z,1792
2018-01-05T09:46:56.132Z,1836
2018-01-05T09:48:04.968Z,1820
2018-01-05T09:49:13.797Z,1812
2018-01-05T09:50:22.928Z,1828
2018-01-05T09:51:31.764Z,1860
2018-01-05T09:52:40.596Z,1860
2018-01-05T09:53:49.472Z,1796
2018-01-05T09:54:58.305Z,1812
2018-01-05T09:56:07.177Z,1856
2018-01-05T09:57:16.017Z,1868
2018-01-05T09:58:25.166Z,1884
2018-01-05T09:59:34.028Z,1908
2018-01-05T10:00:43.386Z,1948
2018-01-05T10:01:52.327Z,1944
2018-01-05T10:03:01.513Z,1904
2018-01-05T10:04:10.365Z,1896
2018-01-05T10:05:19.228Z,1904
2018-01-05T10:06:28.360Z,1904
2018-01-05T10:07:37.261Z,1820
2018-01-05T10:08:46.218Z,1852
2018-01-05T10:09:55.087Z,1976
2018-01-05T10:11:04.628Z,2100
2018-01-05T10:12:13.740Z,2120
2018-01-05T10:13:22.576Z,2132
2018-01-05T10:14:31.405Z,2160
2018-01-05T10:15:40.234Z,2128
2018-01-05T10:16:49.064Z,2100
2018-01-05T10:17:57.896Z,2100
2018-01-05T10:19:07.006Z,2168
2018-01-05T10:20:15.837Z,2200
2018-01-05T10:21:24.669Z,2272
2018-01-05T10:22:33.502Z,2384
2018-01-05T10:23:42.610Z,2384
2018-01-05T10:24:51.441Z,2348
2018-01-05T10:26:00.277Z,2312
2018-01-05T10:27:09.103Z,2296
2018-01-05T10:28:17.934Z,2260
2018-01-05T10:29:26.763Z,2248
2018-01-05T10:30:35.870Z,2348
2018-01-05T10:31:44.984Z,2432
2018-01-05T10:32:53.829Z,2468
2018-01-05T10:34:03.194Z,2484
2018-01-05T10:35:12.027Z,2500
2018-01-05T10:36:20.859Z,2452
2018-01-05T10:37:29.690Z,2368
2018-01-05T10:38:38.520Z,2304
2018-01-05T10:39:47.359Z,2180
2018-01-05T10:40:56.191Z,2168
2018-01-05T10:42:05.121Z,2420
2018-01-05T10:43:13.951Z,2556
2018-01-05T10:44:22.786Z,2544
2018-01-05T10:45:31.621Z,2480
2018-01-05T10:46:40.454Z,2456
2018-01-05T10:47:49.763Z,2544
2018-01-05T10:48:58.570Z,2696
2018-01-05T10:50:07.400Z,2700
2018-01-05T10:51:16.230Z,2708
2018-01-05T10:52:25.059Z,2708
2018-01-05T10:53:33.992Z,2668
2018-01-05T10:54:42.823Z,2596
2018-01-05T10:55:51.656Z,2508
2018-01-05T10:57:01.036Z,2484
2018-01-05T10:58:09.874Z,2532
2018-01-05T10:59:18.907Z,2568
2018-01-05T11:00:27.739Z,2584
2018-01-05T11:01:36.971Z,2532
2018-01-05T11:02:45.805Z,2488
2018-01-05T11:03:54.636Z,2476
2018-01-05T11:05:03.795Z,2488
2018-01-05T11:06:12.630Z,2456
2018-01-05T11:07:21.461Z,2420
2018-01-05T11:08:30.293Z,2440
2018-01-05T11:09:39.124Z,2472
2018-01-05T11:10:48.057Z,2468
2018-01-05T11:11:56.886Z,2408
2018-01-05T11:13:05.997Z,2404
2018-01-05T11:14:14.824Z,2380
2018-01-05T11:15:23.654Z,2376
2018-01-05T11:16:32.587Z,2368
2018-01-05T11:17:41.418Z,2324
2018-01-05T11:18:50.250Z,2360
2018-01-05T11:19:59.083Z,2436
2018-01-05T11:21:08.200Z,2460
2018-01-05T11:22:17.312Z,2560
2018-01-05T11:23:26.126Z,2632
2018-01-05T11:24:34.957Z,2620
2018-01-05T11:25:43.785Z,2660
2018-01-05T11:26:52.618Z,2576
2018-01-05T11:28:01.776Z,2512
2018-01-05T11:29:10.609Z,2436
2018-01-05T11:30:19.713Z,2412
2018-01-05T11:31:28.545Z,2404
2018-01-05T11:32:37.376Z,2400
2018-01-05T11:33:46.457Z,2336
2018-01-05T11:34:55.288Z,2360
2018-01-05T11:36:04.122Z,2400
2018-01-05T11:37:12.952Z,2320
2018-01-05T11:38:21.780Z,2240
2018-01-05T11:39:30.913Z,2176
2018-01-05T11:40:39.744Z,2020
2018-01-05T11:41:48.625Z,1904
2018-01-05T11:42:57.464Z,1864
2018-01-05T11:44:06.301Z,1840
2018-01-05T11:45:15.536Z,1876
2018-01-05T11:46:24.645Z,1856
2018-01-05T11:47:33.487Z,1868
2018-01-05T11:48:42.319Z,1796
2018-01-05T11:49:51.426Z,1744
2018-01-05T11:51:00.513Z,1792
2018-01-05T11:52:09.338Z,1860
2018-01-05T11:53:18.168Z,1852
2018-01-05T11:54:26.996Z,1780
2018-01-05T11:55:35.826Z,1776
2018-01-05T11:56:45.013Z,1800
2018-01-05T11:57:54.116Z,1800
2018-01-05T11:59:02.949Z,1772
2018-01-05T12:00:11.781Z,1760
2018-01-05T12:01:20.609Z,1696
2018-01-05T12:02:29.493Z,1652
2018-01-05T12:03:38.325Z,1664
2018-01-05T12:04:47.162Z,1668
2018-01-05T12:05:55.993Z,1592
2018-01-05T12:07:04.825Z,1592
2018-01-05T12:08:13.752Z,1664
2018-01-05T12:09:22.583Z,1688
2018-01-05T12:10:31.412Z,1684
2018-01-05T12:11:40.243Z,1632
2018-01-05T12:12:49.073Z,1556
2018-01-05T12:13:58.004Z,1548
2018-01-05T12:15:06.844Z,1480
2018-01-05T12:16:15.671Z,1524
2018-01-05T12:17:24.502Z,1568
2018-01-05T12:18:33.332Z,1568
2018-01-05T12:19:42.465Z,1544
2018-01-05T12:20:51.300Z,1564
2018-01-05T12:22:00.404Z,1564
2018-01-05T12:23:09.237Z,1540
2018-01-05T12:24:18.070Z,1508
2018-01-05T12:25:27.002Z,1508
2018-01-05T12:26:35.835Z,1536
2018-01-05T12:27:44.950Z,1520
2018-01-05T12:28:53.784Z,1484
2018-01-05T12:30:02.615Z,1492
2018-01-05T12:31:11.748Z,1496
2018-01-05T12:32:20.580Z,1524
2018-01-05T12:33:29.408Z,1584
2018-01-05T12:34:38.239Z,1604
2018-01-05T12:35:47.072Z,1604
2018-01-05T12:36:56.152Z,1620
2018-01-05T12:38:04.984Z,1592
2018-01-05T12:39:14.090Z,1556
2018-01-05T12:40:22.921Z,1548
2018-01-05T12:41:31.750Z,1540
2018-01-05T12:42:40.681Z,1556
2018-01-05T12:43:49.513Z,1572
2018-01-05T12:44:58.619Z,1604
2018-01-05T12:46:07.452Z,1640
2018-01-05T12:47:16.282Z,1640
2018-01-05T12:48:25.211Z,1656
2018-01-05T12:49:34.043Z,1676
2018-01-05T12:50:42.875Z,1672
2018-01-05T12:51:51.709Z,1676
2018-01-05T12:53:00.543Z,1684
2018-01-05T12:54:09.373Z,1652
2018-01-05T12:55:18.481Z,1588
2018-01-05T12:56:27.311Z,1612
2018-01-05T12:57:36.147Z,1612
2018-01-05T12:58:44.986Z,1616
2018-01-05T12:59:53.818Z,1608
2018-01-05T13:01:02.921Z,1612
2018-01-05T13:02:11.755Z,1652
2018-01-05T13:03:20.636Z,1724
2018-01-05T13:04:29.417Z,1684
2018-01-05T13:05:38.396Z,1708
2018-01-05T13:06:47.498Z,1708
2018-01-05T13:07:56.329Z,1656
2018-01-05T13:09:05.165Z,1672
2018-01-05T13:10:13.995Z,1692
2018-01-05T13:11:22.877Z,1692
2018-01-05T13:12:31.982Z,1732
2018-01-05T13:13:40.813Z,1808
2018-01-05T13:14:49.646Z,1820
2018-01-05T13:15:58.476Z,1768
2018-01-05T13:17:07.609Z,1748
2018-01-05T13:18:16.440Z,1744
2018-01-05T13:19:25.276Z,1732
2018-01-05T13:20:34.117Z,1764
2018-01-05T13:21:42.945Z,1764
2018-01-05T13:22:51.826Z,1700
2018-01-05T13:24:00.660Z,1684
2018-01-05T13:25:09.492Z,1688
2018-01-05T13:26:18.872Z,1708
2018-01-05T13:27:27.709Z,1748
2018-01-05T13:28:36.967Z,1768
2018-01-05T13:29:45.799Z,1708
2018-01-05T13:30:54.631Z,1636
2018-01-05T13:32:03.461Z,1552
2018-01-05T13:33:12.293Z,1524
2018-01-05T13:34:21.699Z,1496
2018-01-05T13:35:30.526Z,1440
2018-01-05T13:36:39.359Z,1340
2018-01-05T13:37:48.197Z,1308
2018-01-05T13:38:57.030Z,1292
2018-01-05T13:40:06.435Z,1252
2018-01-05T13:41:15.266Z,1272
2018-01-05T13:42:24.098Z,1304
2018-01-05T13:43:32.931Z,1296
2018-01-05T13:44:42.037Z,1300
2018-01-05T13:45:50.869Z,1244
2018-01-05T13:46:59.702Z,1216
2018-01-05T13:48:08.534Z,1276
2018-01-05T13:49:17.364Z,1348
2018-01-05T13:50:26.196Z,1440
2018-01-05T13:51:35.551Z,1484
2018-01-05T13:52:44.385Z,1528
2018-01-05T13:53:53.215Z,1500
2018-01-05T13:55:02.047Z,1528
2018-01-05T13:56:10.888Z,1544
2018-01-05T13:57:19.765Z,1476
2018-01-05T13:58:28.600Z,1368
2018-01-05T13:59:37.427Z,1296
2018-01-05T14:00:46.258Z,1352
2018-01-05T14:01:55.087Z,1364
2018-01-05T14:03:04.216Z,1400
2018-01-05T14:04:13.047Z,1416
2018-01-05T14:05:21.879Z,1444
2018-01-05T14:06:30.714Z,1392
2018-01-05T14:07:39.544Z,1344
2018-01-05T14:08:48.733Z,1352
2018-01-05T14:09:57.561Z,1272
2018-01-05T14:11:06.390Z,1216
2018-01-05T14:12:15.219Z,1176
2018-01-05T14:13:24.049Z,1096
2018-01-05T14:14:32.882Z,1096
2018-01-05T14:15:41.714Z,1072
2018-01-05T14:16:50.546Z,1080
2018-01-05T14:17:59.380Z,1112
2018-01-05T14:19:08.210Z,1080
2018-01-05T14:20:17.039Z,1080
2018-01-05T14:21:26.147Z,1072
2018-01-05T14:22:35.249Z,1000
2018-01-05T14:23:44.078Z,948
2018-01-05T14:24:52.909Z,908
2018-01-05T14:26:01.892Z,832
2018-01-05T14:27:10.725Z,808
2018-01-05T14:28:19.554Z,788
2018-01-05T14:29:28.660Z,800
2018-01-05T14:30:37.486Z,780
2018-01-05T14:31:46.466Z,780
2018-01-05T14:32:55.296Z,792
2018-01-05T14:34:04.132Z,752
2018-01-05T14:35:12.963Z,684
2018-01-05T14:36:21.791Z,700
2018-01-05T14:37:30.620Z,748
2018-01-05T14:38:39.451Z,756
2018-01-05T14:39:48.555Z,716
2018-01-05T14:40:57.386Z,676
2018-01-05T14:42:06.216Z,680
2018-01-05T14:43:15.347Z,700
2018-01-05T14:44:24.178Z,700
2018-01-05T14:45:33.010Z,684
2018-01-05T14:46:41.840Z,640
2018-01-05T14:47:50.669Z,604
2018-01-05T14:48:59.601Z,616
2018-01-05T14:50:08.431Z,616
2018-01-05T14:51:17.265Z,616
2018-01-05T14:52:26.097Z,592
2018-01-05T14:53:34.925Z,564
2018-01-05T14:54:43.803Z,560
2018-01-05T14:55:52.911Z,556
2018-01-05T14:57:02.015Z,536
2018-01-05T14:58:10.847Z,504
2018-01-05T14:59:19.680Z,464
2018-01-05T15:00:28.937Z,428
2018-01-05T15:01:37.769Z,412
2018-01-05T15:02:46.874Z,380
2018-01-05T15:03:55.706Z,348
2018-01-05T15:05:04.538Z,332
2018-01-05T15:06:13.418Z,308
2018-01-05T15:07:22.247Z,300
2018-01-05T15:08:31.355Z,276
2018-01-05T15:09:40.185Z,256
2018-01-05T15:10:49.020Z,236
2018-01-05T15:11:57.899Z,224
2018-01-05T15:13:06.734Z,212
2018-01-05T15:14:15.849Z,196
2018-01-05T15:15:24.948Z,188
2018-01-05T15:16:33.779Z,172
2018-01-05T15:17:42.710Z,156
2018-01-05T15:18:51.540Z,144
2018-01-05T15:20:00.369Z,136
2018-01-05T15:21:09.199Z,128
2018-01-05T15:22:18.029Z,120
2018-01-05T15:23:26.979Z,108
2018-01-05T15:24:35.742Z,100
2018-01-05T15:25:44.574Z,92
2018-01-05T15:26:53.402Z,84
2018-01-05T15:28:02.235Z,72
2018-01-05T15:29:11.217Z,64
2018-01-05T15:30:20.049Z,56
2018-01-05T15:31:28.885Z,48
2018-01-05T15:32:37.717Z,40
2018-01-05T15:33:46.551Z,36
2018-01-05T15:34:55.662Z,32
2018-01-05T15:36:04.766Z,24
2018-01-05T15:37:13.886Z,20
2018-01-05T15:38:22.718Z,16
2018-01-05T15:39:31.826Z,16
2018-01-05T15:40:40.956Z,12
2018-01-05T15:41:49.787Z,12
2018-01-05T15:42:58.616Z,12
2018-01-05T15:44:07.726Z,12
2018-01-05T15:45:16.574Z,8
2018-01-05T15:46:25.453Z,8
2018-01-05T15:47:34.285Z,8
2018-01-05T15:48:43.117Z,4
2018-01-05T15:49:51.947Z,0
2018-01-05T15:51:00.773Z,4
2018-01-05T15:52:09.604Z,0
2018-01-05T15:53:18.434Z,4
2018-01-05T15:54:27.262Z,4
2018-01-05T15:55:36.089Z,0
2018-01-05T15:56:44.923Z,0
2018-01-05T15:57:53.754Z,0
2018-01-05T15:59:02.586Z,0
2018-01-05T16:00:11.417Z,0
2018-01-05T16:01:20.247Z,0
2018-01-05T16:02:29.075Z,0
2018-01-05T16:03:38.332Z,0
2018-01-05T16:04:47.442Z,0
2018-01-05T16:05:56.272Z,0
2018-01-05T16:07:05.102Z,0
2018-01-05T16:08:13.941Z,0
2018-01-05T16:09:23.043Z,0
2018-01-05T16:10:31.877Z,0